M I D A S
Marine Information and Data Acquisition System
Tripno 747 of the Zeeleeuw from 2004-07-13 06:12:42 to 2004-07-13 17:27:28
Back to CruiseResearch ActivitiesStationsMapUnderway DataData graphs

EquipmentUnitsComment
TimeDGPSUTC
LatitudeDGPSDM.mWGS84
LongitudeDGPSDM.mWGS84
HeadingGyrodeg 
SOGDGPSknotsSpeed over ground
COGDGPSdegCourse over ground
DepthEcho soundermeters200 kHz
Missing or incorrect values are displayed as -999
Navigation data collected by the RV Zeeleeuw from 2004-07-13 06:12:42 to 2004-07-13 17:27:28
Time Latitude Longitude Heading SOG COG Depth
2004-07-13 06:13:48 51°13.597 2°56.096 127.4   230 8.1
2004-07-13 06:14:48 51°13.597 2°56.096 127   325 8.3
2004-07-13 06:15:47 51°13.597 2°56.096 127   249 8.4
2004-07-13 06:16:48 51°13.597 2°56.096 127.1   229 8.3
2004-07-13 06:17:48 51°13.597 2°56.097 124.6 0.1 174 8.2
2004-07-13 06:18:46 51°13.599 2°56.083 116.8 2 295 5.4
2004-07-13 06:19:48 51°13.626 2°55.995 119.3 4.3 295 -999
2004-07-13 06:20:48 51°13.654 2°55.884 107.7 4.6 286 -999
2004-07-13 06:21:48 51°13.658 2°55.775 83.2 1.7 263 -999
2004-07-13 06:22:48 51°13.717 2°55.77 341.7 6.6 333 13
2004-07-13 06:23:48 51°13.808 2°55.651 326.1 7.3 323 10.4
2004-07-13 06:24:48 51°13.919 2°55.56 340.4 7.6 336 10
2004-07-13 06:25:48 51°14.04 2°55.486 346.9 8 341 11.7
2004-07-13 06:26:48 51°14.172 2°55.401 339.3 9.4 332 12
2004-07-13 06:27:46 51°14.289 2°55.22 314.3 11 309 11.7
2004-07-13 06:28:48 51°14.41 2°54.961 314.4 12.7 311 11.4
2004-07-13 06:29:48 51°14.576 2°54.743 331.6 13 325 10.7
2004-07-13 06:30:48 51°14.751 2°54.539 330.4 13 325 10.2
2004-07-13 06:31:48 51°14.927 2°54.339 329.8 13 323 9.4
2004-07-13 06:32:48 51°15.102 2°54.138 329.9 13.1 324 9.5
2004-07-13 06:33:48 51°15.276 2°53.931 330 13.1 323 10.1
2004-07-13 06:34:48 51°15.45 2°53.719 330.6 13.2 323 10.6
2004-07-13 06:35:47 51°15.635 2°53.555 341.2 12.9 332 11.7
2004-07-13 06:36:48 51°15.828 2°53.387 340.4 13.1 332 12
2004-07-13 06:37:45 51°16.01 2°53.229 339.3 13.2 331 12.7
2004-07-13 06:38:46 51°16.205 2°53.06 339 12.9 331 12.8
2004-07-13 06:39:48 51°16.408 2°52.911 344 12.9 337 13
2004-07-13 06:40:47 51°16.598 2°52.778 343.7 12.7 337 12
2004-07-13 06:41:46 51°16.791 2°52.649 346.4 12.6 340 10.8
2004-07-13 06:42:48 51°16.99 2°52.526 346.2 12.5 339 10.5
2004-07-13 06:43:47 51°17.189 2°52.473 4.6 12.6 357 10.7
2004-07-13 06:44:48 51°17.399 2°52.45 3 12.4 355 11.1
2004-07-13 06:45:48 51°17.607 2°52.432 7.4 12.5   10.9
2004-07-13 06:46:48 51°17.817 2°52.433 6.9 12.4 359 11.2
2004-07-13 06:47:48 51°18.023 2°52.439 9.8 12.5 9 11.5
2004-07-13 06:48:48 51°18.217 2°52.553 30.8 12.5 25 11.6
2004-07-13 06:49:48 51°18.41 2°52.687 28.8 12.6 24 12
2004-07-13 06:50:48 51°18.607 2°52.82 28.1 12.9 23 12.1
2004-07-13 06:51:45 51°18.795 2°52.946 27.8 12.7 23 12.6
2004-07-13 06:52:48 51°19.002 2°53.081 27.5 12.8 22 12.8
2004-07-13 06:53:48 51°19.198 2°53.207 27.1 12.7 22 13.4
2004-07-13 06:54:48 51°19.393 2°53.332 27.7 12.2 22 13.8
2004-07-13 06:55:47 51°19.585 2°53.456 29.4 12.6 24 14.4
2004-07-13 06:56:48 51°19.781 2°53.598 29.4 12.6 24 14.8
2004-07-13 06:57:48 51°19.975 2°53.736 29.7 12.9 24 15.9
2004-07-13 06:58:48 51°20.169 2°53.876 29 12.8 23 16.3
2004-07-13 06:59:47 51°20.362 2°54.011 29.4 12.9 24 16.8
2004-07-13 07:00:48 51°20.554 2°54.149 29.3 12.4 25 16.9
2004-07-13 07:01:48 51°20.749 2°54.289 29 12.5 23 17.6
2004-07-13 07:02:48 51°20.941 2°54.427 29.1 12.8 23 17.6
2004-07-13 07:03:48 51°21.134 2°54.567 29 12.7 24 17.8
2004-07-13 07:04:48 51°21.327 2°54.709 29.2 12.6 24 18.1
2004-07-13 07:05:48 51°21.519 2°54.86 31.7 12.9 27 18.1
2004-07-13 07:06:48 51°21.712 2°55.018 30.9 13 27 18.2
2004-07-13 07:07:52 51°21.919 2°55.181 29.2 13 24 18.5
2004-07-13 07:08:52 51°22.115 2°55.325 28.9 12.8 25 18.9
2004-07-13 07:09:52 51°22.31 2°55.47 29.5 13.1 25 20.1
2004-07-13 07:10:52 51°22.506 2°55.617 29 13.1 25 19.2
2004-07-13 07:11:52 51°22.702 2°55.764 29.3 12.8 25 19.4
2004-07-13 07:12:52 51°22.897 2°55.91 28.9 12.9 26 19.5
2004-07-13 07:13:52 51°23.092 2°56.06 29 13.1 25 20
2004-07-13 07:14:52 51°23.288 2°56.21 29.7 13 26 20
2004-07-13 07:15:52 51°23.485 2°56.354 27.4 13.1 23 20.5
2004-07-13 07:16:52 51°23.683 2°56.492 26.9 12.9 23 18.9
2004-07-13 07:17:52 51°23.881 2°56.631 27.2 13 23 15.6
2004-07-13 07:18:52 51°24.075 2°56.767 27.7 12.9 24 16.4
2004-07-13 07:19:52 51°24.27 2°56.904 27.3 12.8 24 18.5
2004-07-13 07:20:52 51°24.462 2°57.042 27.5 12.7 24 18.5
2004-07-13 07:21:55 51°24.663 2°57.186 26.8 12.6 23 20.6
2004-07-13 07:22:56 51°24.861 2°57.322 25.6 12.8 22 22.1
2004-07-13 07:23:56 51°25.06 2°57.458 26.2 12.8 23 23.9
2004-07-13 07:24:56 51°25.254 2°57.594 26 12.6 23 24.9
2004-07-13 07:25:56 51°25.452 2°57.73 26.4 13 24 25.6
2004-07-13 07:26:56 51°25.65 2°57.868 26.1 13.2 24 26.4
2004-07-13 07:27:55 51°25.846 2°58.005 26.7 13.1 24 25.5
2004-07-13 07:28:57 51°26.052 2°58.149 25.9 13.1 24 24.1
2004-07-13 07:29:55 51°26.241 2°58.282 26.6 12.6 24 21.9
2004-07-13 07:30:57 51°26.438 2°58.422 26.4 12.2 24 21.5
2004-07-13 07:31:55 51°26.625 2°58.555 26.1 12.5 24 20.5
2004-07-13 07:33:02 51°26.843 2°58.709 27.1 13 23 19
2004-07-13 07:34:02 51°27.038 2°58.849 26 13 24 20
2004-07-13 07:35:02 51°27.232 2°58.986 26.7 12.7 25 16.5
2004-07-13 07:36:02 51°27.425 2°59.121 26.8 12.7 25 20.4
2004-07-13 07:37:04 51°27.625 2°59.264 26.5 13.2 26 20.8
2004-07-13 07:38:05 51°27.818 2°59.423 37.7 12.7 41 19.8
2004-07-13 07:39:05 51°27.955 2°59.682 53.1 12.8 52 20.6
2004-07-13 07:40:05 51°28.091 2°59.954 52.6 13 52 20.7
2004-07-13 07:41:04 51°28.229 3°0.212 51.4 12.8 48 20.7
2004-07-13 07:42:03 51°28.369 3°0.472 51.1 13.2 48 21.3
2004-07-13 07:43:05 51°28.519 3°0.744 50.8 13.3 48 21.8
2004-07-13 07:44:04 51°28.659 3°0.998 50 12.9 48 22.1
2004-07-13 07:45:05 51°28.807 3°1.26 50.5 13 47 22.6
2004-07-13 07:46:05 51°28.95 3°1.517 52.1 12.8 48 23.1
2004-07-13 07:47:05 51°29.096 3°1.776 50.3 13.2 48 23.7
2004-07-13 07:48:05 51°29.244 3°2.032 49.1 12.9 47 24.3
2004-07-13 07:49:05 51°29.388 3°2.293 51 13 46 24.5
2004-07-13 07:50:04 51°29.532 3°2.55 51.2 13 48 24.7
2004-07-13 07:51:06 51°29.685 3°2.819 50 13.1 47 26.1
2004-07-13 07:52:06 51°29.825 3°3.086 53.5 13.1 51 26.3
2004-07-13 07:53:06 51°29.964 3°3.362 54 13.3 52 26.1
2004-07-13 07:54:06 51°30.104 3°3.639 53.7 13.4 52 26.7
2004-07-13 07:55:06 51°30.243 3°3.913 52.7 13.1 51 25.8
2004-07-13 07:56:06 51°30.384 3°4.185 53.2 13.3 49 26
2004-07-13 07:57:06 51°30.525 3°4.459 53.7 13.5 50 25.5
2004-07-13 07:58:05 51°30.659 3°4.724 53.4 12.9 50 26.3
2004-07-13 07:59:06 51°30.804 3°4.998 52.9 13.2 51 26
2004-07-13 08:00:06 51°30.944 3°5.27 53.1 13.2 49 24.9
2004-07-13 08:01:05 51°31.082 3°5.539 53.3 13.2 51 27.2
2004-07-13 08:02:06 51°31.224 3°5.816 54.2 13.2 50 26.2
2004-07-13 08:03:04 51°31.359 3°6.08 53.2 13.1 52 26.9
2004-07-13 08:04:06 51°31.503 3°6.363 53.7 13.1 51 27.8
2004-07-13 08:05:06 51°31.645 3°6.639 53.5 13.2 51 28
2004-07-13 08:06:06 51°31.786 3°6.914 53.5 13.3 50 28.9
2004-07-13 08:07:06 51°31.929 3°7.188 52.9 13.4 49 28.3
2004-07-13 08:08:06 51°32.072 3°7.462 53.7 13.6 50 29.3
2004-07-13 08:09:06 51°32.215 3°7.739 53.7 13.5 51 29.1
2004-07-13 08:10:06 51°32.359 3°8.015 52.9 13.4 50 30.1
2004-07-13 08:11:06 51°32.502 3°8.29 53.3 13.5 50 31.1
2004-07-13 08:12:04 51°32.639 3°8.56 54.2 13.3 50 31.8
2004-07-13 08:13:05 51°32.781 3°8.839 53 13.3 50 31.5
2004-07-13 08:14:05 51°32.922 3°9.113 52.4 13.2 51 31.7
2004-07-13 08:15:06 51°33.065 3°9.393 53.5 13.3 50 32.2
2004-07-13 08:16:06 51°33.205 3°9.67 54.1 13.3 53 32.7
2004-07-13 08:17:05 51°33.342 3°9.944 52.7 13.3 51 33.5
2004-07-13 08:18:06 51°33.479 3°10.237 56.1 13.4 53 31.6
2004-07-13 08:19:05 51°33.607 3°10.526 56.4 13.6 54 30.8
2004-07-13 08:20:13 51°33.755 3°10.853 56.1 13.4 55 32.9
2004-07-13 08:21:12 51°33.885 3°11.139 56.8 13.5 53 32.5
2004-07-13 08:22:12 51°34.018 3°11.432 57.3 13.6 54 32.6
2004-07-13 08:23:12 51°34.149 3°11.728 56.9 13.6 54 32.4
2004-07-13 08:24:13 51°34.283 3°12.03 56.6 13.9 53 32.6
2004-07-13 08:25:12 51°34.413 3°12.321 56.4 13.6 54 32.4
2004-07-13 08:26:15 51°34.551 3°12.631 55.5 13.4 54 32.3
2004-07-13 08:27:16 51°34.686 3°12.932 55.8 13.6 54 31.7
2004-07-13 08:28:16 51°34.811 3°13.236 58.5 13.8 58 31.1
2004-07-13 08:29:16 51°34.937 3°13.539 57.5 13.5 55 30.4
2004-07-13 08:30:14 51°35.06 3°13.833 57.8 13.7 57 29.4
2004-07-13 08:31:16 51°35.19 3°14.148 58.5 13.6 56 28.7
2004-07-13 08:32:16 51°35.314 3°14.455 58.8 13.8 57 28.6
2004-07-13 08:33:13 51°35.432 3°14.746 58.5 13.8 57 27.7
2004-07-13 08:34:16 51°35.565 3°15.063 58 13.7 58 27.4
2004-07-13 08:35:15 51°35.689 3°15.36 58.5 13.8 57 27.6
2004-07-13 08:36:16 51°35.82 3°15.668 59.4 13.8 57 26.6
2004-07-13 08:37:21 51°35.958 3°15.997 58.7 13.9 57 27.7
2004-07-13 08:38:22 51°36.089 3°16.307 58 14.1 56 26.4
2004-07-13 08:39:22 51°36.22 3°16.61 57.2 13.9 55 26.4
2004-07-13 08:40:22 51°36.349 3°16.917 60.2 14.1 60 27.1
2004-07-13 08:41:22 51°36.48 3°17.223 57.7 13.9 54 27.9
2004-07-13 08:42:20 51°36.608 3°17.517 58.7 14.1 57 28.2
2004-07-13 08:43:21 51°36.74 3°17.833 59.7 14.1 60 27.8
2004-07-13 08:44:22 51°36.866 3°18.151 60.2 13.9 60 28.4
2004-07-13 08:45:21 51°36.987 3°18.463 58.8 14.1 58 28.7
2004-07-13 08:46:21 51°37.109 3°18.778 60.6 13.9 60 28.9
2004-07-13 08:47:22 51°37.235 3°19.097 60.6 13.7 56 29.1
2004-07-13 08:48:21 51°37.357 3°19.406 59.8 14.1 58 29.4
2004-07-13 08:49:22 51°37.481 3°19.726 60.9 13.8 59 29.6
2004-07-13 08:50:22 51°37.605 3°20.034 59.7 13.7 58 29.6
2004-07-13 08:51:22 51°37.726 3°20.345 60.4 13.7 60 29.6
2004-07-13 08:52:22 51°37.851 3°20.654 59.9 13.8 58 29.7
2004-07-13 08:53:22 51°37.976 3°20.966 60.1 14 59 29
2004-07-13 08:54:22 51°38.098 3°21.275 60.1 13.8 58 28.7
2004-07-13 08:55:24 51°38.224 3°21.598 60.9 13.9 58 28.1
2004-07-13 08:56:25 51°38.348 3°21.918 61.6 13.8 59 27.2
2004-07-13 08:57:24 51°38.467 3°22.226 60.2 13.7 60 27
2004-07-13 08:58:23 51°38.596 3°22.521 52.6 13.7 49 26
2004-07-13 08:59:25 51°38.75 3°22.808 51.8 13.8 50 24.8
2004-07-13 09:00:24 51°38.895 3°23.08 51.8 13.6 49 24.8
2004-07-13 09:01:24 51°39.041 3°23.361 52.4 13.7 52 24.1
2004-07-13 09:02:24 51°39.188 3°23.639 52.3 13.5 49 23.4
2004-07-13 09:03:24 51°39.336 3°23.916 51.6 13.7 49 23
2004-07-13 09:04:24 51°39.483 3°24.195 52.1 13.8 49 22.7
2004-07-13 09:05:24 51°39.631 3°24.475 52.2 13.7 50 22.4
2004-07-13 09:06:24 51°39.78 3°24.757 51.9 13.7 49 21.9
2004-07-13 09:07:24 51°39.927 3°25.039 52.3 13.8 53 21.7
2004-07-13 09:08:24 51°40.076 3°25.319 52.9 13.7 50 20.6
2004-07-13 09:09:24 51°40.223 3°25.602 51.8 13.7 50 20.6
2004-07-13 09:10:25 51°40.372 3°25.886 53.2 13.7 49 20.5
2004-07-13 09:11:24 51°40.527 3°26.144 44.9 13.7 42 20.3
2004-07-13 09:12:24 51°40.698 3°26.38 42 13.6 40 19
2004-07-13 09:13:24 51°40.87 3°26.619 43.2 13.5 42 18.1
2004-07-13 09:14:24 51°41.041 3°26.856 42.8 13.5 42 17.5
2004-07-13 09:15:24 51°41.21 3°27.093 43.5 13.3 43 19.3
2004-07-13 09:16:24 51°41.38 3°27.331 42.6 13.7 42 18.7
2004-07-13 09:17:25 51°41.553 3°27.573 43.6 13.4 42 18.1
2004-07-13 09:18:25 51°41.718 3°27.812 43.6 13.2 41 17.4
2004-07-13 09:19:24 51°41.883 3°28.048 43.3 13.6 41 15.4
2004-07-13 09:20:25 51°42.059 3°28.289 40.7 13.5 40 13.2
2004-07-13 09:21:24 51°42.228 3°28.515 41.9 13.4 40 14.6
2004-07-13 09:22:24 51°42.404 3°28.743 41.7 13.6 38 17.5
2004-07-13 09:23:24 51°42.581 3°28.971 40.3 13.8 38 18.1
2004-07-13 09:24:24 51°42.76 3°29.198 40.4 13.7 39 17.8
2004-07-13 09:25:24 51°42.941 3°29.426 41.4 13.5 39 18.4
2004-07-13 09:26:25 51°43.124 3°29.659 41.4 13.9 39 18.8
2004-07-13 09:27:24 51°43.302 3°29.886 41.6 14 39 18.9
2004-07-13 09:28:24 51°43.484 3°30.117 41.3 14 37 17.5
2004-07-13 09:29:24 51°43.667 3°30.347 41.4 13.8 38 19.3
2004-07-13 09:30:24 51°43.848 3°30.577 40.9 13.7 37 19.6
2004-07-13 09:31:25 51°44.034 3°30.811 40.8 13.6 38 19.7
2004-07-13 09:32:24 51°44.211 3°31.044 46.1 14 48 20.2
2004-07-13 09:33:24 51°44.353 3°31.344 57.5 14.2 53 20.3
2004-07-13 09:34:24 51°44.497 3°31.647 56.8 14.2 53 18.9
2004-07-13 09:35:24 51°44.628 3°31.967 60.9 14.1 57 19.1
2004-07-13 09:36:24 51°44.752 3°32.292 60.5 14.3 59 17
2004-07-13 09:37:24 51°44.878 3°32.613 60.3 14.2 57 15.6
2004-07-13 09:38:24 51°44.971 3°32.958 77.6 13.9 79 14.6
2004-07-13 09:39:25 51°44.987 3°33.343 90.1 13.9 88 13.3
2004-07-13 09:40:24 51°45 3°33.717 89.4 13.9 88 13.5
2004-07-13 09:41:24 51°44.997 3°34.096 97.8 13.9 93 13.8
2004-07-13 09:42:25 51°44.994 3°34.48 95.2 14.1 91 14.3
2004-07-13 09:43:24 51°44.993 3°34.85 95.3 13.9 87 14.3
2004-07-13 09:44:24 51°44.99 3°35.229 97.8 14.4 95 13.4
2004-07-13 09:45:24 51°44.954 3°35.601 105.2 14.1 102 12.4
2004-07-13 09:46:24 51°44.913 3°35.973 104.7 14 105 11.5
2004-07-13 09:47:24 51°44.867 3°36.34 109.5 12.1 102 10.7
2004-07-13 09:48:25 51°44.809 3°36.564 129.6 6 129 10.3
2004-07-13 09:49:25 51°44.787 3°36.668 105.7 2.7 112 10.5
2004-07-13 09:50:25 51°44.789 3°36.713 82.7 1.7 94 10.8
2004-07-13 09:51:24 51°44.794 3°36.755 75.7 1.6 76 10.5
2004-07-13 09:52:24 51°44.799 3°36.799 73.7 1.6 73 10.6
2004-07-13 09:53:24 51°44.805 3°36.842 74.6 1.9 101 10.4
2004-07-13 09:54:24 51°44.81 3°36.885 75.9 1.7 92 10.6
2004-07-13 09:55:24 51°44.818 3°36.931 76.9 2.7 87 10.1
2004-07-13 09:56:25 51°44.812 3°37.016 128.4 3.3 118 10.4
2004-07-13 09:57:24 51°44.772 3°37.055 193.8 2.5 201 10.1
2004-07-13 09:58:25 51°44.742 3°37.019 250.3 2.4 257 10.3
2004-07-13 09:59:24 51°44.729 3°36.956 260.5 2.8 259 10
2004-07-13 10:00:25 51°44.717 3°36.876 257.5 2.9 259 10.6
2004-07-13 10:01:24 51°44.697 3°36.815 248.8 2.5 238 10.9
2004-07-13 10:02:24 51°44.68 3°36.761 252.4 2.3 265 10.6
2004-07-13 10:03:25 51°44.667 3°36.707 258.4 2.3 243 10.7
2004-07-13 10:04:25 51°44.659 3°36.643 262.7 2.6 262 10.4
2004-07-13 10:05:24 51°44.648 3°36.576 259.8 2.9 236 10.2
2004-07-13 10:06:24 51°44.64 3°36.504 265.2 2.7 273 10.8
2004-07-13 10:07:24 51°44.634 3°36.431 262.4 2.7 259 10.7
2004-07-13 10:08:25 51°44.625 3°36.358 259.7 2.7 254 10.6
2004-07-13 10:09:24 51°44.611 3°36.288 257.6 2.8 252 10.8
2004-07-13 10:10:24 51°44.6 3°36.218 257.5 2.7 243 10.6
2004-07-13 10:11:25 51°44.589 3°36.145 259.1 2.8 272 10.7
2004-07-13 10:12:24 51°44.577 3°36.076 258.7 2.7 262 10.6
2004-07-13 10:13:24 51°44.569 3°36.004 265.4 2.8 260 10.9
2004-07-13 10:14:24 51°44.571 3°35.928 276.9 2.9 279 10.8
2004-07-13 10:15:24 51°44.587 3°35.852 288.2 3 293 10.6
2004-07-13 10:16:25 51°44.613 3°35.783 297.8 3 306 11
2004-07-13 10:17:24 51°44.646 3°35.724 305.2 3 307 11.3
2004-07-13 10:18:24 51°44.684 3°35.676 315.6 3 331 11.6
2004-07-13 10:19:24 51°44.728 3°35.637 322.4 3 333 11.7
2004-07-13 10:20:24 51°44.772 3°35.611 330.9 2.6 348 12.1
2004-07-13 10:21:24 51°44.82 3°35.599 339.6 2.9 357 12
2004-07-13 10:22:24 51°44.87 3°35.595 348 3.2 2 12.5
2004-07-13 10:23:24 51°44.923 3°35.607 1.7 3.2 12 12.7
2004-07-13 10:24:24 51°44.974 3°35.637 13 3.2 22 12.8
2004-07-13 10:25:24 51°45.021 3°35.682 24.8 3.3 29 12.9
2004-07-13 10:26:25 51°45.066 3°35.735 27.4 3.3 39 12.4
2004-07-13 10:27:22 51°45.105 3°35.784 26.1 3 35 12.9
2004-07-13 10:28:24 51°45.149 3°35.834 23.9 3.1 41 13
2004-07-13 10:29:23 51°45.189 3°35.88 20.9 2.8 32 12.9
2004-07-13 10:30:25 51°45.231 3°35.925 19.5 3.1 37 12.9
2004-07-13 10:31:24 51°45.271 3°35.966 18.7 3 33 13
2004-07-13 10:32:24 51°45.314 3°36.017 32.1 3.5 42 12.8
2004-07-13 10:33:24 51°45.356 3°36.088 48.3 4 54 12.9
2004-07-13 10:34:25 51°45.402 3°36.166 42.8 3.9 36 12.7
2004-07-13 10:35:25 51°45.449 3°36.24 39.2 3.6 49 13
2004-07-13 10:36:25 51°45.484 3°36.297 36.8 2.7 47 12.7
2004-07-13 10:37:25 51°45.511 3°36.344 37.7 2.2 47 13
2004-07-13 10:38:24 51°45.547 3°36.406 44.4 4 43 12.7
2004-07-13 10:39:24 51°45.586 3°36.494 64.3 3.9 54 13
2004-07-13 10:40:25 51°45.614 3°36.583 63.6 3.6 60 12.7
2004-07-13 10:41:25 51°45.644 3°36.661 58.7 3.3 53 12.8
2004-07-13 10:42:24 51°45.673 3°36.733 58.9 3.2 67 12.8
2004-07-13 10:43:25 51°45.699 3°36.808 65.4 3.2 64 13
2004-07-13 10:44:28 51°45.725 3°36.884 66.1 2.9 60 12.7
2004-07-13 10:45:28 51°45.746 3°36.957 69 3.1 73 12.6
2004-07-13 10:46:28 51°45.768 3°37.03 71.3 3.1 58 12.9
2004-07-13 10:47:28 51°45.789 3°37.104 71.2 3 62 12.7
2004-07-13 10:48:28 51°45.81 3°37.177 68 3.2 71 12.5
2004-07-13 10:49:28 51°45.833 3°37.247 65.3 3 54 12.5
2004-07-13 10:50:28 51°45.859 3°37.315 61.7 3 67 12.7
2004-07-13 10:51:28 51°45.885 3°37.383 61.7 3 62 13
2004-07-13 10:52:27 51°45.912 3°37.451 62.5 3.1 57 12.7
2004-07-13 10:53:28 51°45.938 3°37.522 63.4 3 60 12.1
2004-07-13 10:54:28 51°45.964 3°37.593 64.7 3.1 57 12.9
2004-07-13 10:55:28 51°45.99 3°37.663 66.5 3.2 49 12.6
2004-07-13 10:56:28 51°46.014 3°37.735 65.8 3.1 56 13
2004-07-13 10:57:28 51°46.039 3°37.805 64.8 3.1 50 13
2004-07-13 10:58:28 51°46.065 3°37.874 62.7 3 55 12.6
2004-07-13 10:59:28 51°46.092 3°37.943 60.9 3.1 45 12.7
2004-07-13 11:00:27 51°46.119 3°38.011 62.7 3.1 53 12.6
2004-07-13 11:01:28 51°46.147 3°38.082 65.2 3.1 49 12.2
2004-07-13 11:02:28 51°46.172 3°38.154 68.8 3.2 69 12.8
2004-07-13 11:03:27 51°46.195 3°38.226 70.5 2.9 61 12.3
2004-07-13 11:04:27 51°46.22 3°38.297 70 3.1 55 12.2
2004-07-13 11:05:28 51°46.245 3°38.369 67.1 3.1 75 12.5
2004-07-13 11:06:28 51°46.272 3°38.437 64.1 2.9 61 11.8
2004-07-13 11:07:27 51°46.298 3°38.503 64 3.1 62 12
2004-07-13 11:08:28 51°46.326 3°38.57 61.8 3.1 65 12.6
2004-07-13 11:09:28 51°46.353 3°38.636 63 3 54 12.1
2004-07-13 11:10:28 51°46.381 3°38.703 63.5 3 52 11.7
2004-07-13 11:11:28 51°46.409 3°38.769 63.6 2.9 52 11.7
2004-07-13 11:12:28 51°46.435 3°38.833 64.9 2.8 56 11.7
2004-07-13 11:13:28 51°46.461 3°38.898 64.4 3 38 11.6
2004-07-13 11:14:33 51°46.491 3°38.968 63.5 3.1 64 12.1
2004-07-13 11:15:33 51°46.518 3°39.033 64.7 3.1 44 11.8
2004-07-13 11:16:33 51°46.547 3°39.109 65.2 3.8 57 11.8
2004-07-13 11:17:32 51°46.582 3°39.2 66.4 4.3 57 11.8
2004-07-13 11:18:33 51°46.618 3°39.303 71.5 4.6 55 11.7
2004-07-13 11:19:33 51°46.652 3°39.412 73.3 4.8 50 11
2004-07-13 11:20:33 51°46.686 3°39.498 58.5 3.5 53 11.4
2004-07-13 11:21:33 51°46.722 3°39.557 42.9 2.8 38 11.7
2004-07-13 11:22:32 51°46.753 3°39.599 34.7 2.2 25 11.4
2004-07-13 11:23:32 51°46.781 3°39.634 28.3 1.8 28 11.6
2004-07-13 11:24:33 51°46.805 3°39.667 26.6 1.9 49 11.7
2004-07-13 11:25:33 51°46.83 3°39.698 22.6 2 26 11.9
2004-07-13 11:26:32 51°46.858 3°39.731 21.1 2.3 44 12.2
2004-07-13 11:27:33 51°46.89 3°39.762 17.9 2.3 27 12.4
2004-07-13 11:28:33 51°46.924 3°39.795 15.1 2.4 29 12.4
2004-07-13 11:29:33 51°46.959 3°39.825 13.7 2.1 24 12.5
2004-07-13 11:30:33 51°46.992 3°39.856 13.8 2.4 33 13.2
2004-07-13 11:31:32 51°47.025 3°39.884 9.6 2 25 13.1
2004-07-13 11:32:33 51°47.059 3°39.91 5.3 2.2 23 13.5
2004-07-13 11:33:32 51°47.09 3°39.933 358.1 2.1 23 13.9
2004-07-13 11:34:32 51°47.121 3°39.954 354.7 1.9 25 13.9
2004-07-13 11:35:33 51°47.151 3°39.972 347.6 2.3 5 13.7
2004-07-13 11:36:32 51°47.194 3°39.909 279.5 4.5 277 14.3
2004-07-13 11:37:33 51°47.128 3°39.762 218.2 8.7 218 14.3
2004-07-13 11:38:33 51°47.019 3°39.717 169 6.5 152 13.9
2004-07-13 11:39:32 51°46.983 3°39.824 112.6 3 81 13
2004-07-13 11:40:38 51°46.998 3°39.877 74.6 2 49 12.5
2004-07-13 11:41:38 51°47.013 3°39.917 68.8 1.8 34 12.7
2004-07-13 11:42:38 51°47.026 3°39.951 65.3 1.7 25 12.7
2004-07-13 11:43:37 51°47.039 3°39.983 61.6 1.4 65 12.7
2004-07-13 11:44:38 51°47.053 3°40.014 61.6 1.5 60 12.8
2004-07-13 11:45:37 51°47.072 3°40.054 53.1 3.5 44 12.7
2004-07-13 11:46:38 51°47.156 3°40.09 349.7 6.5 349 13.5
2004-07-13 11:47:38 51°47.205 3°39.95 264.4 7.4 262 14.1
2004-07-13 11:48:38 51°47.114 3°39.712 239 11.7 239 14.2
2004-07-13 11:49:38 51°47.001 3°39.435 237.8 12.6 238 14.2
2004-07-13 11:50:37 51°46.887 3°39.163 239.4 12.3 238 14
2004-07-13 11:51:36 51°46.773 3°38.892 239.2 12.5 231 14.1
2004-07-13 11:52:37 51°46.653 3°38.612 239.1 12.2 235 13.7
2004-07-13 11:53:44 51°46.519 3°38.307 235.2 12.5 236 13.1
2004-07-13 11:54:45 51°46.395 3°38.034 236.5 12.3 228 12
2004-07-13 11:55:44 51°46.279 3°37.768 238 12.1 232 12.2
2004-07-13 11:56:45 51°46.156 3°37.493 237.6 12.4 232 12.1
2004-07-13 11:57:44 51°46.032 3°37.232 233.6 12.3 233 11.6
2004-07-13 11:58:45 51°45.904 3°36.959 236.2 12.4 236 11.9
2004-07-13 11:59:44 51°45.785 3°36.693 236.1 12.6 237 12.5
2004-07-13 12:00:44 51°45.67 3°36.419 240.7 12.3 232 12.8
2004-07-13 12:01:45 51°45.552 3°36.139 237.7 12.4 237 12.9
2004-07-13 12:02:45 51°45.437 3°35.861 238.6 12.4 240 13
2004-07-13 12:03:45 51°45.33 3°35.573 239.3 12.7 246 13.5
2004-07-13 12:04:45 51°45.225 3°35.283 242.2 12.6 239 13.9
2004-07-13 12:05:44 51°45.124 3°34.993 244.8 12.5 239 14.2
2004-07-13 12:06:45 51°45.027 3°34.685 245.3 12.7 242 14.1
2004-07-13 12:07:45 51°44.93 3°34.382 244.4 12.9 238 13.8
2004-07-13 12:08:45 51°44.828 3°34.083 241.6 12.7 245 14
2004-07-13 12:09:45 51°44.693 3°33.834 225.9 12.5 224 13.8
2004-07-13 12:10:45 51°44.54 3°33.618 219.8 12.2 218 13.7
2004-07-13 12:11:44 51°44.378 3°33.429 217 12.2 213 14.4
2004-07-13 12:12:44 51°44.209 3°33.243 218.5 12.4 215 14
2004-07-13 12:13:45 51°44.039 3°33.062 214.5 12.2 209 14.5
2004-07-13 12:14:50 51°43.84 3°32.918 203.9 12.3 200 15.2
2004-07-13 12:15:48 51°43.653 3°32.828 194.2 11.9 191 15.3
2004-07-13 12:16:49 51°43.458 3°32.74 198.2 11.8 195 15.2
2004-07-13 12:17:50 51°43.26 3°32.657 194.9 12.1 192 14.6
2004-07-13 12:18:49 51°43.069 3°32.6 189.8 12 187 13.1
2004-07-13 12:19:50 51°42.87 3°32.58 179.3 12.1 180 13.1
2004-07-13 12:20:50 51°42.676 3°32.642 167.8 12.2 164 13.3
2004-07-13 12:21:50 51°42.486 3°32.748 164.4 12.6 161 13.5
2004-07-13 12:22:50 51°42.3 3°32.864 162.7 12.3 159 14
2004-07-13 12:23:49 51°42.115 3°32.982 160.2 11.8 158 13.5
2004-07-13 12:24:49 51°41.927 3°33.105 160 12.4 159 12.3
2004-07-13 12:25:50 51°41.736 3°33.238 157.5 12.4 159 11.9
2004-07-13 12:26:50 51°41.549 3°33.37 161.6 12.3 160 13.5
2004-07-13 12:27:50 51°41.358 3°33.496 160.7 11.7 159 14.4
2004-07-13 12:28:50 51°41.166 3°33.626 159.6 12.3 159 13.8
2004-07-13 12:29:54 51°40.958 3°33.759 162.8 12.4 159 13.9
2004-07-13 12:30:53 51°40.761 3°33.863 165.4 12.8 164 13.5
2004-07-13 12:31:59 51°40.538 3°33.947 170.2 12.4 167 13
2004-07-13 12:33:00 51°40.325 3°33.959 190.3 12.5 192 13.5
2004-07-13 12:34:00 51°40.14 3°33.797 220.7 13 222 14.9
2004-07-13 12:34:57 51°40.009 3°33.54 234.6 13.2 235 14.4
2004-07-13 12:36:00 51°39.873 3°33.238 234.2 13.3 233 13.3
2004-07-13 12:37:00 51°39.738 3°32.957 230.2 13.3 229 13.3
2004-07-13 12:38:00 51°39.608 3°32.667 234.7 13.2 234 14.3
2004-07-13 12:39:00 51°39.487 3°32.365 241.1 13.6 242 16.8
2004-07-13 12:40:00 51°39.374 3°32.052 240.9 13.6 241 17.4
2004-07-13 12:41:00 51°39.259 3°31.744 239.9 13.4 238 17.9
2004-07-13 12:42:00 51°39.145 3°31.436 239.9 13.3 240 16.5
2004-07-13 12:43:00 51°39.02 3°31.144 233.4 13.3 231 15
2004-07-13 12:44:05 51°38.843 3°30.886 221.3 13.5 221 13.5
2004-07-13 12:45:05 51°38.667 3°30.68 211.2 13.2 209 12.7
2004-07-13 12:46:05 51°38.461 3°30.577 196 12.5 192 11.5
2004-07-13 12:47:05 51°38.249 3°30.503 191.3 12.7 193 11.7
2004-07-13 12:48:09 51°38.024 3°30.426 191.4 13.2 189 11.7
2004-07-13 12:49:08 51°37.813 3°30.437 177.6 12.9 176 10.7
2004-07-13 12:50:10 51°37.592 3°30.455 177.1 13.2 179 11.3
2004-07-13 12:51:10 51°37.42 3°30.484 163.7 6.3 156 11.2
2004-07-13 12:52:09 51°37.369 3°30.553 125.9 2.3 114 11.9
2004-07-13 12:53:10 51°37.372 3°30.584 84.6 0.8 76 11.8
2004-07-13 12:54:10 51°37.383 3°30.602 76.4 0.9 47 11.8
2004-07-13 12:55:10 51°37.395 3°30.618 77.1 0.8 50 11.8
2004-07-13 12:56:15 51°37.403 3°30.672 113.3 2.4 103 11.7
2004-07-13 12:57:15 51°37.367 3°30.7 182.5 2.8 192 11.7
2004-07-13 12:58:15 51°37.327 3°30.646 221.1 3.4 235 11.5
2004-07-13 12:59:14 51°37.289 3°30.585 215.5 3.2 212 11.4
2004-07-13 13:00:14 51°37.249 3°30.528 213.5 3.1 219 11.6
2004-07-13 13:01:14 51°37.214 3°30.468 220.6 3.1 236 11.4
2004-07-13 13:02:14 51°37.184 3°30.402 228.2 3.1 241 11.6
2004-07-13 13:03:15 51°37.16 3°30.327 235 3.3 255 11.8
2004-07-13 13:04:12 51°37.14 3°30.257 235 3.1 250 11.7
2004-07-13 13:05:12 51°37.119 3°30.182 234.8 3.2 253 11.8
2004-07-13 13:06:15 51°37.097 3°30.104 235.2 3 240 11.7
2004-07-13 13:07:14 51°37.076 3°30.031 234.4 3 249 11.9
2004-07-13 13:08:14 51°37.053 3°29.958 233.5 3.1 248 12.1
2004-07-13 13:09:14 51°37.031 3°29.885 233.7 3.1 250 12
2004-07-13 13:10:15 51°37.009 3°29.808 237.4 3.1 243 12.3
2004-07-13 13:11:14 51°36.991 3°29.731 240.8 3.1 247 12.1
2004-07-13 13:12:15 51°36.973 3°29.65 241.7 3.2 255 12.1
2004-07-13 13:13:14 51°36.957 3°29.571 240.7 3.1 248 12
2004-07-13 13:14:14 51°36.939 3°29.493 239 3 238 11.6
2004-07-13 13:15:14 51°36.92 3°29.415 238.3 3.2 255 11.4
2004-07-13 13:16:12 51°36.901 3°29.341 237.1 3.2 246 11.3
2004-07-13 13:17:15 51°36.878 3°29.263 238.6 3 244 10.6
2004-07-13 13:18:14 51°36.859 3°29.189 240 3 241 10.2
2004-07-13 13:19:13 51°36.842 3°29.115 240.1 3 250 10.5
2004-07-13 13:20:14 51°36.825 3°29.039 240.9 2.9 249 10.6
2004-07-13 13:21:14 51°36.808 3°28.964 240.9 3 251 10
2004-07-13 13:22:15 51°36.793 3°28.886 244.5 2.9 244 10.2
2004-07-13 13:23:14 51°36.781 3°28.809 246.4 3 259 9.9
2004-07-13 13:24:15 51°36.769 3°28.729 246.4 2.9 252 9.4
2004-07-13 13:25:15 51°36.757 3°28.651 244.7 3 258 9.4
2004-07-13 13:26:15 51°36.744 3°28.575 244.9 2.8 246 9.5
2004-07-13 13:27:15 51°36.732 3°28.498 242 2.9 250 9.9
2004-07-13 13:28:14 51°36.716 3°28.423 237.9 3 248 9.9
2004-07-13 13:29:14 51°36.698 3°28.349 236.7 2.9 244 10
2004-07-13 13:30:15 51°36.681 3°28.271 237.9 3 245 9.8
2004-07-13 13:31:15 51°36.665 3°28.195 238.7 3.1 254 9.3
2004-07-13 13:32:14 51°36.648 3°28.121 239.6 2.9 244 10.2
2004-07-13 13:33:14 51°36.634 3°28.042 240.4 3 254 10.4
2004-07-13 13:34:14 51°36.618 3°27.957 247.1 3.5 255 10.8
2004-07-13 13:35:15 51°36.612 3°27.857 264.4 3.9 274 11.2
2004-07-13 13:36:15 51°36.624 3°27.753 283.8 3.9 286 11.1
2004-07-13 13:37:14 51°36.655 3°27.656 306 4 304 10.3
2004-07-13 13:38:14 51°36.689 3°27.595 321.1 2.3 320 9.6
2004-07-13 13:39:14 51°36.714 3°27.556 327.3 1.9 319 8.9
2004-07-13 13:40:14 51°36.737 3°27.529 337.3 1.7 330 8.9
2004-07-13 13:41:15 51°36.758 3°27.506 349.2 1.4 319 9.1
2004-07-13 13:42:14 51°36.775 3°27.49 0.7 1.1 340 9.7
2004-07-13 13:43:14 51°36.791 3°27.478 13.8 0.8 354 9.8
2004-07-13 13:44:13 51°36.805 3°27.466 24 1.1 327 9.8
2004-07-13 13:45:14 51°36.831 3°27.474 58 2.3 25 10
2004-07-13 13:46:15 51°36.841 3°27.529 114.9 2.2 103 10.2
2004-07-13 13:47:15 51°36.838 3°27.606 101.4 3.3 87 10.2
2004-07-13 13:48:14 51°36.85 3°27.699 92.1 3.8 79 10.4
2004-07-13 13:49:17 51°36.865 3°27.805 91.3 3.8 83 9.7
2004-07-13 13:50:18 51°36.875 3°27.906 100 3.6 78 10.3
2004-07-13 13:51:17 51°36.87 3°27.986 111 2.9 104 9.7
2004-07-13 13:52:16 51°36.867 3°28.06 103.2 3 86 9.6
2004-07-13 13:53:19 51°36.872 3°28.14 96 2.8 82 10
2004-07-13 13:54:17 51°36.88 3°28.213 96.7 3 71 9.5
2004-07-13 13:55:19 51°36.885 3°28.289 100.8 2.8 82 9.1
2004-07-13 13:56:20 51°36.884 3°28.364 102.3 2.8 93 10.3
2004-07-13 13:57:17 51°36.885 3°28.434 103.2 2.8 86 9.8
2004-07-13 13:58:17 51°36.883 3°28.508 105.2 2.8 96 10.7
2004-07-13 13:59:18 51°36.882 3°28.582 105.7 2.6 101 10.5
2004-07-13 14:00:18 51°36.88 3°28.656 105.8 2.7 87 10.2
2004-07-13 14:01:18 51°36.879 3°28.728 104.5 2.9 78 9.8
2004-07-13 14:02:19 51°36.878 3°28.801 103.2 2.8 82 10.6
2004-07-13 14:03:19 51°36.877 3°28.874 103 2.7 101 10.3
2004-07-13 14:04:18 51°36.877 3°28.947 104.7 2.9 85 10.1
2004-07-13 14:05:19 51°36.874 3°29.02 105.3 2.7 97 10.1
2004-07-13 14:06:19 51°36.874 3°29.09 101 2.8 77 10.1
2004-07-13 14:07:18 51°36.876 3°29.161 98.8 2.7 97 9.7
2004-07-13 14:08:19 51°36.881 3°29.236 97.3 2.8 87 10
2004-07-13 14:09:18 51°36.884 3°29.31 97.7 2.9 79 10.3
2004-07-13 14:10:19 51°36.888 3°29.386 97.3 2.9 79 10.3
2004-07-13 14:11:18 51°36.89 3°29.459 99.8 2.8 93 10.7
2004-07-13 14:12:18 51°36.891 3°29.532 100.6 2.7 105 11
2004-07-13 14:13:19 51°36.893 3°29.607 100.6 2.8 84 10.9
2004-07-13 14:14:18 51°36.894 3°29.679 98.7 2.7 90 11.2
2004-07-13 14:15:18 51°36.896 3°29.753 100 2.8 85 11.3
2004-07-13 14:16:19 51°36.897 3°29.83 98.8 2.8 93 11.1
2004-07-13 14:17:19 51°36.898 3°29.905 99.9 2.8 100 11.5
2004-07-13 14:18:19 51°36.899 3°29.981 99.1 2.8 103 11.3
2004-07-13 14:19:19 51°36.9 3°30.056 99.4 2.8 94 11.4
2004-07-13 14:20:18 51°36.901 3°30.131 99.3 2.8 92 11.4
2004-07-13 14:21:18 51°36.902 3°30.207 99 2.8 99 11.3
2004-07-13 14:22:17 51°36.901 3°30.281 101.4 3 79 10.9
2004-07-13 14:23:19 51°36.898 3°30.356 104 2.7 101 10.9
2004-07-13 14:24:18 51°36.883 3°30.422 118.6 2.7 114 10.6
2004-07-13 14:25:18 51°36.858 3°30.479 123.1 2.6 126 10.5
2004-07-13 14:26:18 51°36.835 3°30.538 117.5 2.6 121 10.6
2004-07-13 14:27:20 51°36.822 3°30.592 108.7 1.8 101 11
2004-07-13 14:28:18 51°36.817 3°30.627 103 1.2 98 11
2004-07-13 14:29:20 51°36.816 3°30.654 100.7 0.9 98 11
2004-07-13 14:30:20 51°36.818 3°30.672 97.6 0.7 109 11.1
2004-07-13 14:31:18 51°36.821 3°30.694 92.2 1.1 59 11
2004-07-13 14:32:19 51°36.827 3°30.723 84.3 1.2 81 11.2
2004-07-13 14:33:19 51°36.84 3°30.753 73 1.5 52 11
2004-07-13 14:34:19 51°36.86 3°30.781 63 1.7 31 11
2004-07-13 14:35:19 51°36.881 3°30.8 55 1.3 21 11.1
2004-07-13 14:36:19 51°36.902 3°30.808 44.2 1.3 10 11
2004-07-13 14:37:20 51°36.927 3°30.807 28.6 1.5 350 -999
2004-07-13 14:38:18 51°36.947 3°30.798 15.6 1.3 348 10.8
2004-07-13 14:39:19 51°36.967 3°30.781 1.7 1.2 338 10.8
2004-07-13 14:40:19 51°36.984 3°30.758 349.6 1.2 327 10.8
2004-07-13 14:41:18 51°37.004 3°30.731 336.7 2.6 323 10.9
2004-07-13 14:42:19 51°37.027 3°30.686 310.9 1.3 297 11
2004-07-13 14:43:19 51°37.04 3°30.655 309.7 1.7 307 10.8
2004-07-13 14:44:19 51°37.051 3°30.623 303.7 1.3 295 10.5
2004-07-13 14:45:18 51°37.06 3°30.596 302.2 1.1 295 10.6
2004-07-13 14:46:20 51°37.072 3°30.559 299.7 2.9 295 10.4
2004-07-13 14:47:18 51°37.071 3°30.352 268.4 12.1 267 10.6
2004-07-13 14:48:19 51°37.057 3°29.981 268.7 14.2 267 10.7
2004-07-13 14:49:20 51°37.011 3°29.606 255.4 14.1 255 11.1
2004-07-13 14:50:18 51°36.941 3°29.26 253 14.1 251 10.6
2004-07-13 14:51:19 51°36.873 3°28.895 253.4 14.1 254 9.5
2004-07-13 14:52:18 51°36.808 3°28.542 254.6 14.1 253 8.7
2004-07-13 14:53:18 51°36.742 3°28.183 254.5 14.1 254 8.5
2004-07-13 14:54:17 51°36.689 3°27.824 258.8 14.1 255 8.1
2004-07-13 14:55:19 51°36.626 3°27.444 256.3 14.6 255 9.7
2004-07-13 14:56:19 51°36.567 3°27.074 257 13.9 256 10.3
2004-07-13 14:57:18 51°36.503 3°26.714 252.2 14.1 250 10.7
2004-07-13 14:58:19 51°36.424 3°26.352 252.1 14.2 247 10.7
2004-07-13 14:59:20 51°36.346 3°25.994 251.7 13.9 254 10.3
2004-07-13 15:00:18 51°36.284 3°25.646 259 14.2 256 10.7
2004-07-13 15:01:19 51°36.233 3°25.274 260.5 13.9 255 10.7
2004-07-13 15:02:20 51°36.179 3°24.903 259.8 14 256 11.6
2004-07-13 15:03:18 51°36.135 3°24.552 263.6 14 261 10.8
2004-07-13 15:04:20 51°36.091 3°24.174 262.4 13.9 257 11.3
2004-07-13 15:05:19 51°36.051 3°23.816 261.9 14 259 11.3
2004-07-13 15:06:16 51°36.012 3°23.469 262 14 260 10.9
2004-07-13 15:07:17 51°35.97 3°23.096 261.7 14 259 11.2
2004-07-13 15:08:18 51°35.93 3°22.72 263.3 14 262 11.2
2004-07-13 15:09:19 51°35.887 3°22.348 261.6 14 258 10.2
2004-07-13 15:10:19 51°35.844 3°21.979 262 14.2 260 10.1
2004-07-13 15:11:20 51°35.801 3°21.604 261.6 13.8 260 10.2
2004-07-13 15:12:18 51°35.758 3°21.246 262 14.3 259 10.6
2004-07-13 15:13:17 51°35.714 3°20.88 261.1 14.1 259 12.6
2004-07-13 15:14:19 51°35.666 3°20.501 262.1 14.2 259 13.5
2004-07-13 15:15:18 51°35.579 3°20.17 237.9 13.7 236 14.3
2004-07-13 15:16:23 51°35.442 3°19.839 239.1 13.7 234 15.1
2004-07-13 15:17:22 51°35.323 3°19.535 240.4 13.7 239 13.9
2004-07-13 15:18:23 51°35.199 3°19.224 240.9 13.6 235 13.3
2004-07-13 15:19:24 51°35.076 3°18.911 241.3 13.6 234 15.7
2004-07-13 15:20:22 51°34.96 3°18.611 240.8 13.9 240 14.9
2004-07-13 15:21:22 51°34.84 3°18.298 240.3 13.9 235 12.9
2004-07-13 15:22:23 51°34.719 3°17.979 242.4 13.6 241 15.2
2004-07-13 15:23:22 51°34.603 3°17.674 242.3 13.5 239 13.5
2004-07-13 15:24:24 51°34.481 3°17.354 240.7 13.8 240 15
2004-07-13 15:25:23 51°34.366 3°17.049 242.4 13.3 240 16.3
2004-07-13 15:26:22 51°34.249 3°16.744 241.5 13.7 238 17
2004-07-13 15:27:21 51°34.133 3°16.436 240.6 13.6 238 17.8
2004-07-13 15:28:23 51°34.011 3°16.113 242.9 13.6 239 17.5
2004-07-13 15:29:22 51°33.894 3°15.807 240.3 13.6 239 18.8
2004-07-13 15:30:23 51°33.774 3°15.495 241.3 13.4 238 18.8
2004-07-13 15:31:22 51°33.66 3°15.191 241.2 13.6 243 19.3
2004-07-13 15:32:24 51°33.539 3°14.875 240.4 13.4 234 20
2004-07-13 15:33:24 51°33.424 3°14.565 241.2 13.5 239 19.9
2004-07-13 15:34:22 51°33.313 3°14.263 241.7 13.7 234 20.2
2004-07-13 15:35:24 51°33.192 3°13.943 240.2 13.7 240 20.6
2004-07-13 15:36:23 51°33.076 3°13.638 240.6 13.7 240 20.5
2004-07-13 15:37:22 51°32.959 3°13.329 240.6 13.8 239 20.7
2004-07-13 15:38:23 51°32.838 3°13.012 241.9 13.6 239 20.4
2004-07-13 15:39:23 51°32.718 3°12.702 240 13.7 240 20.6
2004-07-13 15:40:24 51°32.597 3°12.387 240.9 13.6 237 20.8
2004-07-13 15:41:25 51°32.474 3°12.07 241.8 14 233 20.5
2004-07-13 15:42:25 51°32.356 3°11.757 243 13.5 240 20.8
2004-07-13 15:43:24 51°32.237 3°11.453 242.5 13.6 234 20.5
2004-07-13 15:44:25 51°32.114 3°11.136 242.4 13.5 237 20.7
2004-07-13 15:45:32 51°31.981 3°10.784 241.9 13.8 240 20.6
2004-07-13 15:46:29 51°31.865 3°10.486 241.6 13.7 237 20.4
2004-07-13 15:47:30 51°31.741 3°10.166 240.2 14 242 20.3
2004-07-13 15:48:32 51°31.617 3°9.838 241 13.9 237 20.2
2004-07-13 15:49:36 51°31.488 3°9.501 239.7 13.9 239 21.4
2004-07-13 15:50:36 51°31.367 3°9.186 241 14 242 21.5
2004-07-13 15:51:36 51°31.246 3°8.872 240.7 13.9 239 21.8
2004-07-13 15:52:36 51°31.126 3°8.555 241.4 13.7 240 23
2004-07-13 15:53:36 51°31.004 3°8.239 242 14 238 22.4
2004-07-13 15:54:36 51°30.882 3°7.919 241.8 14.1 238 24.1
2004-07-13 15:55:36 51°30.762 3°7.602 240.6 13.9 242 22.5
2004-07-13 15:56:36 51°30.641 3°7.284 241 14.3 241 22.9
2004-07-13 15:57:43 51°30.505 3°6.928 240.4 14.1 237 24.4
2004-07-13 15:58:44 51°30.38 3°6.603 240.2 14.1 235 24.3
2004-07-13 15:59:43 51°30.26 3°6.29 241.6 13.9 240 23.7
2004-07-13 16:00:49 51°30.122 3°5.94 240.4 14.3 237 23.5
2004-07-13 16:01:48 51°30.002 3°5.626 240.2 14.1 239 23.1
2004-07-13 16:02:49 51°29.877 3°5.301 240.8 14 239 23
2004-07-13 16:03:49 51°29.753 3°4.983 241.4 14 239 23
2004-07-13 16:04:49 51°29.631 3°4.661 240.6 14.3 240 23.7
2004-07-13 16:05:49 51°29.508 3°4.338 241 14.5 238 23.1
2004-07-13 16:06:49 51°29.387 3°4.012 242.3 14.1 243 23.5
2004-07-13 16:07:49 51°29.262 3°3.69 241.7 13.9 240 23
2004-07-13 16:08:49 51°29.137 3°3.367 242.6 14 237 23
2004-07-13 16:09:52 51°29.007 3°3.023 240.3 14.5 237 22.1
2004-07-13 16:10:54 51°28.877 3°2.687 242.4 14 236 22.7
2004-07-13 16:11:54 51°28.752 3°2.361 240.8 14.4 238 22.4
2004-07-13 16:12:54 51°28.626 3°2.036 240.6 14.4 238 22
2004-07-13 16:13:54 51°28.497 3°1.714 241.3 14.5 236 21.9
2004-07-13 16:14:53 51°28.376 3°1.395 242 14.1 238 21.4
2004-07-13 16:15:52 51°28.251 3°1.074 240.3 14.3 239 21.2
2004-07-13 16:16:54 51°28.118 3°0.74 241.6 14.2 235 20.8
2004-07-13 16:17:53 51°27.993 3°0.425 240.9 14.3 238 21
2004-07-13 16:18:54 51°27.863 3°0.101 238.7 14.2 234 18.6
2004-07-13 16:19:54 51°27.72 2°59.798 236.4 14.3 235 17.3
2004-07-13 16:20:54 51°27.574 2°59.498 233.6 14.3 230 17.6
2004-07-13 16:21:54 51°27.403 2°59.231 221.9 14.8 217 18.6
2004-07-13 16:22:54 51°27.205 2°59.022 214 14.4 214 15.2
2004-07-13 16:23:57 51°26.988 2°58.82 211.3 14.2 211 18.8
2004-07-13 16:24:57 51°26.773 2°58.674 197.8 14.5 195 16.7
2004-07-13 16:25:57 51°26.546 2°58.556 197.3 15 197 19.3
2004-07-13 16:26:56 51°26.323 2°58.457 196.6 14.2 195 19.4
2004-07-13 16:28:03 51°26.073 2°58.316 203.5 14 201 22.4
2004-07-13 16:29:03 51°25.858 2°58.169 206.4 14.2 203 24.1
2004-07-13 16:30:02 51°25.647 2°58.017 206 14.6 206 24.4
2004-07-13 16:31:03 51°25.431 2°57.858 206.5 14 207 23.2
2004-07-13 16:32:01 51°25.222 2°57.713 204.7 13.9 201 22.8
2004-07-13 16:33:01 51°25.008 2°57.557 205.9 14.4 206 21.7
2004-07-13 16:34:07 51°24.775 2°57.384 205.8 14.1 206 18.5
2004-07-13 16:35:05 51°24.568 2°57.235 205.6 14.3 207 18.1
2004-07-13 16:36:07 51°24.346 2°57.075 203.4 14.9 205 16.8
2004-07-13 16:37:07 51°24.131 2°56.919 205.2 13.7 206 16.3
2004-07-13 16:38:06 51°23.916 2°56.765 205.4 14.8 204 15.9
2004-07-13 16:39:07 51°23.695 2°56.613 204 14 202 16.4
2004-07-13 16:40:07 51°23.475 2°56.457 204.2 15.5 203 18.7
2004-07-13 16:41:07 51°23.26 2°56.298 205.6 14.2 204 18.3
2004-07-13 16:42:07 51°23.043 2°56.144 205.4 14.2 205 17.8
2004-07-13 16:43:06 51°22.831 2°55.991 203.9 14 201 17.6
2004-07-13 16:44:04 51°22.621 2°55.839 205 14.1 204 17.6
2004-07-13 16:45:07 51°22.393 2°55.671 205.4 14.6 205 17.8
2004-07-13 16:46:07 51°22.178 2°55.515 206 13.9 204 17.7
2004-07-13 16:47:07 51°21.962 2°55.362 203.3 14.4 202 17
2004-07-13 16:48:07 51°21.748 2°55.203 206.9 13.9 205 17
2004-07-13 16:49:13 51°21.512 2°55.026 205.8 14.5 206 16.8
2004-07-13 16:50:13 51°21.294 2°54.869 205.7 14.4 203 16.6
2004-07-13 16:51:13 51°21.076 2°54.707 204.4 14.8 206 16.2
2004-07-13 16:52:12 51°20.861 2°54.554 203.6 15.1 205 15.9
2004-07-13 16:53:12 51°20.644 2°54.396 206.7 14.3 204 15.8
2004-07-13 16:54:21 51°20.394 2°54.214 205.5 14.7 205 15.2
2004-07-13 16:55:21 51°20.175 2°54.055 205.3 14.8 203 14.6
2004-07-13 16:56:21 51°19.957 2°53.893 205.4 14.6 205 13.6
2004-07-13 16:57:20 51°19.744 2°53.739 203.6 14.3 204 13
2004-07-13 16:58:21 51°19.524 2°53.574 204.6 14.9 207 12.4
2004-07-13 16:59:22 51°19.303 2°53.413 203.7 14.5 205 12.1
2004-07-13 17:00:21 51°19.09 2°53.254 206.2 14.4 205 11.6
2004-07-13 17:01:21 51°18.871 2°53.104 204.2 13.9 202 11.4
2004-07-13 17:02:21 51°18.651 2°52.958 203.8 14.1 204 11.1
2004-07-13 17:03:21 51°18.427 2°52.813 200.2 14.7 201 10.6
2004-07-13 17:04:21 51°18.203 2°52.673 199.3 14.7 200 10.3
2004-07-13 17:05:20 51°17.978 2°52.557 193.7 14.1 193 10
2004-07-13 17:06:21 51°17.74 2°52.489 187.9 14.5 189 9.7
2004-07-13 17:07:21 51°17.504 2°52.454 178.5 14.1 179 9.7
2004-07-13 17:08:20 51°17.276 2°52.498 166.8 14.3 167 9.6
2004-07-13 17:09:20 51°17.051 2°52.589 164.6 14 164 9.1
2004-07-13 17:10:21 51°16.822 2°52.69 166.3 14 166 9.2
2004-07-13 17:11:21 51°16.598 2°52.805 157.7 14.2 159 11.1
2004-07-13 17:12:21 51°16.375 2°52.914 161.8 14.1 164 11.8
2004-07-13 17:13:20 51°16.157 2°53.015 161.5 14.3 162 11.7
2004-07-13 17:14:21 51°15.931 2°53.121 160.5 14.3 163 11.5
2004-07-13 17:15:22 51°15.712 2°53.25 158.8 13.6 159 11
2004-07-13 17:16:20 51°15.504 2°53.371 155.8 13.3 160 10.7
2004-07-13 17:17:22 51°15.297 2°53.546 145.7 13.3 149 9.6
2004-07-13 17:18:22 51°15.116 2°53.753 141.3 13.2 143 9.4
2004-07-13 17:19:22 51°14.945 2°53.969 139.7 13.3 140 8.9
2004-07-13 17:20:20 51°14.789 2°54.198 132.2 12.8 132 9.6
2004-07-13 17:21:22 51°14.645 2°54.475 124.4 12.6 127 9.7
2004-07-13 17:22:22 51°14.508 2°54.735 128.2 12.2 126 10.2
2004-07-13 17:23:21 51°14.39 2°54.995 124.8 12.5 121 10.2
2004-07-13 17:24:21 51°14.27 2°55.251 135.6 11.1 135 10.9
2004-07-13 17:25:20 51°14.145 2°55.4 153.1 8 151 10.8
2004-07-13 17:26:20 51°14.036 2°55.479 156.5 7 154 9.9
2004-07-13 17:27:21 51°13.924 2°55.563 158.9 7.5 156 9.4